Historique des mesures à Cassis (13260), France
Quotidien Résumé Mai 17, 2017 Unités:  Métrique    US   Métrique/US
« Précédent (Jour)
Suivant (Jour) »
Quotidien Hebdomadaire Mensuel Annuel Période au choix
  Maximum: Minimum: Moyenne:
Température: TemperatureC °C 18.4 °C 21.7 °C
Point de rosée: DewpointC °C 8.9 °C 10.9 °C
Humidité: Humidity % 42 % 47 %
Vitesse du vent: 0 km/h 0 km/h 3.4 km/h
Rafales: 0 km/h - -
Vent:- - SE
Pression: PressurehPa hPa 1014.4 hPa -
Précipitations: 0.0 mm    
Historical Graphs
 
 
Mesures pour : Mai 17, 2017
Heure Temperature Point de rosée Pression Vent Vitesse du vent Rafales Humidité Pluie (par heure) Conditions
TemperatureC °C DewpointC °C PressurehPa hPa Calm     Humidity % HourlyPrecipMM mm SoftwareType W/m2
00:10 19.4 °C 10.7 °C 1021.6 hPa North 3.4 km/h 5.1 km/h 57 % 0.0 mm open2300-1.11 W/m2
01:10 19.1 °C 10.7 °C 1021.2 hPa Calm   4.2 km/h 58 % 0.0 mm open2300-1.11 W/m2
02:10 18.9 °C 10.2 °C 1020.5 hPa Calm     57 % 0.0 mm open2300-1.11 W/m2
03:10 18.9 °C 9.7 °C 1019.9 hPa NNW 5.6 km/h 6.4 km/h 55 % 0.0 mm open2300-1.11 W/m2
04:10 18.7 °C 9.4 °C 1019.5 hPa WNW 1.8 km/h 6.4 km/h 55 % 0.0 mm open2300-1.11 W/m2
05:10 18.6 °C 9.1 °C 1019.5 hPa NNE 2.9 km/h 3.4 km/h 54 % 0.0 mm open2300-1.11 W/m2
06:10 18.4 °C 8.9 °C 1019.5 hPa Calm     54 % 0.0 mm open2300-1.11 W/m2
07:10 18.8 °C 9.0 °C 1019.2 hPa NNE 4.2 km/h 8 km/h 53 % 0.0 mm open2300-1.11 W/m2
08:10 22.3 °C 10.7 °C 1019.2 hPa Calm   2.3 km/h 48 % 0.0 mm open2300-1.11 W/m2
09:11 22.2 °C 10.9 °C 1019.2 hPa Calm     49 % 0.0 mm open2300-1.11 W/m2
10:10 23.1 °C 11.4 °C 1019.2 hPa SSE 10.3 km/h 10.3 km/h 48 % 0.0 mm open2300-1.11 W/m2
11:10 26.8 °C 12.8 °C 1018.8 hPa West 9.3 km/h 9.3 km/h 42 % 0.0 mm open2300-1.11 W/m2
12:10 27.4 °C 13.3 °C 1018.5 hPa SE 5.1 km/h 8.9 km/h 42 % 0.0 mm open2300-1.11 W/m2
13:10 27.1 °C 14.1 °C 1017.8 hPa SSW 14.5 km/h 14.5 km/h 45 % 0.0 mm open2300-1.11 W/m2
14:10 27.6 °C 14.2 °C 1017.5 hPa SSE 8 km/h 10.3 km/h 44 % 0.0 mm open2300-1.11 W/m2
15:10 27.2 °C 13.2 °C 1017.2 hPa SSW 2.9 km/h 15 km/h 42 % 0.0 mm open2300-1.11 W/m2
16:10 26.7 °C 13.1 °C 1016.8 hPa Calm   13.2 km/h 43 % 0.0 mm open2300-1.11 W/m2
17:10 26.1 °C 12.8 °C 1016.1 hPa South 5.1 km/h 5.6 km/h 44 % 0.0 mm open2300-1.11 W/m2
18:10 25.5 °C 13.0 °C 1015.8 hPa South 2.3 km/h 5.6 km/h 46 % 0.0 mm open2300-1.11 W/m2
19:11 24.6 °C 12.9 °C 1015.5 hPa Calm   2.3 km/h 48 % 0.0 mm open2300-1.11 W/m2
20:11 23.4 °C 12.1 °C 1014.8 hPa Calm     49 % 0.0 mm open2300-1.11 W/m2
21:10 21.9 °C 11.0 °C 1014.4 hPa NNE 1.8 km/h 1.8 km/h 50 % 0.0 mm open2300-1.11 W/m2
22:10 20.2 °C 9.5 °C 1014.8 hPa NNE 3.4 km/h 4.2 km/h 50 % 0.0 mm open2300-1.11 W/m2
23:10 19.3 °C 9.2 °C 1014.4 hPa NNE 3.4 km/h 3.4 km/h 52 % 0.0 mm open2300-1.11 W/m2
Observations météo à CASSIS
WU-History script by Weather Underground - 1 mb